Time;durP1;ratioP1;P1;durP2;ratioP2;P2;SDS_P1;SDS_P2;PMS_P1;PMS_P2;Temp;Humidity;BMP_temperature;BMP_pressure;BME280_temperature;BME280_humidity;BME280_pressure;Samples;Min_cycle;Max_cycle;Signal;HPM_P1;HPM_P2
2024/04/22 00:02:23;;;;;;;2.55;1.83;;;5.20;99.10;;;;;;5506028;25;20077;-62
2024/04/22 00:04:49;;;;;;;4.70;2.13;;;5.20;99.30;;;;;;5518163;26;20016;-64
2024/04/22 00:07:15;;;;;;;3.47;2.05;;;5.20;99.00;;;;;;5507024;25;19993;-62
2024/04/22 00:09:44;;;;;;;5.55;2.33;;;5.10;97.90;;;;;;5514660;26;20062;-62
2024/04/22 00:12:10;;;;;;;2.72;1.92;;;5.10;98.30;;;;;;5508332;26;20441;-62
2024/04/22 00:14:35;;;;;;;4.63;2.30;;;5.10;99.50;;;;;;5508062;26;20222;-62
2024/04/22 00:17:02;;;;;;;4.68;1.70;;;5.10;99.10;;;;;;5511193;26;20827;-62
2024/04/22 00:19:27;;;;;;;8.27;2.03;;;5.10;99.30;;;;;;5502226;25;20069;-63
2024/04/22 00:21:53;;;;;;;5.70;2.25;;;5.10;99.20;;;;;;5515529;26;19993;-63
2024/04/22 00:24:18;;;;;;;3.55;2.25;;;5.10;99.40;;;;;;5517817;26;20054;-62
2024/04/22 00:26:44;;;;;;;4.43;2.00;;;5.00;98.70;;;;;;5500933;25;20564;-62
2024/04/22 00:29:09;;;;;;;4.72;2.13;;;5.00;99.40;;;;;;5505149;25;20584;-62
2024/04/22 00:31:35;;;;;;;4.85;2.33;;;5.00;99.10;;;;;;5517822;26;20067;-62
2024/04/22 00:34:00;;;;;;;4.38;2.45;;;5.10;99.10;;;;;;5509401;25;20005;-64
2024/04/22 00:36:26;;;;;;;3.28;1.63;;;5.10;99.00;;;;;;5474371;26;20012;-62
2024/04/22 00:38:51;;;;;;;7.30;2.53;;;5.10;99.60;;;;;;5508229;25;20466;-62
2024/04/22 00:41:17;;;;;;;4.20;2.28;;;5.10;99.90;;;;;;5504881;25;20001;-61
2024/04/22 00:43:43;;;;;;;5.95;2.80;;;5.10;99.90;;;;;;5514651;25;20002;-62
2024/04/22 00:46:08;;;;;;;4.50;2.10;;;5.10;99.90;;;;;;5510007;25;20645;-64
2024/04/22 00:48:34;;;;;;;4.35;2.22;;;5.10;99.90;;;;;;5482130;26;19997;-64
2024/04/22 00:51:00;;;;;;;2.25;1.83;;;5.10;99.90;;;;;;5515265;26;20010;-64
2024/04/22 00:53:27;;;;;;;3.28;2.03;;;5.10;99.90;;;;;;5514961;26;19993;-63
2024/04/22 00:55:54;;;;;;;5.10;2.65;;;5.10;99.90;;;;;;5512813;25;19997;-63
2024/04/22 00:58:24;;;;;;;8.38;2.30;;;5.10;99.90;;;;;;5506163;25;19995;-64
2024/04/22 01:00:50;;;;;;;4.13;2.10;;;5.10;99.90;;;;;;5510570;25;20006;-64
2024/04/22 01:03:16;;;;;;;4.22;2.53;;;5.00;99.90;;;;;;5506548;26;20016;-64
2024/04/22 01:05:42;;;;;;;5.00;2.35;;;5.10;99.90;;;;;;5506988;26;20766;-65
2024/04/22 01:08:07;;;;;;;4.50;2.22;;;5.20;99.90;;;;;;5500250;26;20005;-64
2024/04/22 01:10:33;;;;;;;8.18;2.58;;;5.20;99.90;;;;;;5507401;25;20012;-63
2024/04/22 01:13:00;;;;;;;3.65;2.08;;;5.20;99.90;;;;;;5507970;26;19998;-63
2024/04/22 01:15:26;;;;;;;6.07;2.60;;;5.20;99.90;;;;;;5511341;26;20002;-63
2024/04/22 01:17:51;;;;;;;3.38;2.20;;;5.20;99.90;;;;;;5489817;26;20743;-64
2024/04/22 01:20:17;;;;;;;5.13;2.55;;;5.20;99.90;;;;;;5513703;26;20417;-63
2024/04/22 01:22:43;;;;;;;3.90;2.20;;;5.20;99.90;;;;;;5511775;26;19997;-64
2024/04/22 01:25:09;;;;;;;3.00;1.83;;;5.20;99.90;;;;;;5507025;26;19990;-64
2024/04/22 01:27:35;;;;;;;5.97;2.70;;;5.20;99.90;;;;;;5517700;26;20053;-65
2024/04/22 01:30:03;;;;;;;5.97;2.33;;;5.20;99.90;;;;;;5505581;25;20570;-64
2024/04/22 01:32:28;;;;;;;4.57;2.47;;;5.30;99.90;;;;;;5514214;26;20518;-64
2024/04/22 01:34:59;;;;;;;6.75;2.20;;;5.20;99.90;;;;;;5506417;26;19998;-64
2024/04/22 01:37:25;;;;;;;5.40;2.53;;;5.20;99.90;;;;;;5511468;26;20023;-63
2024/04/22 01:39:51;;;;;;;3.90;2.28;;;5.20;99.90;;;;;;5504098;25;19993;-64
2024/04/22 01:42:16;;;;;;;4.50;2.28;;;5.20;99.90;;;;;;5509641;25;20341;-64
2024/04/22 01:44:42;;;;;;;4.38;2.45;;;5.10;99.90;;;;;;5516398;26;20041;-64
2024/04/22 01:47:08;;;;;;;3.78;2.30;;;5.10;99.90;;;;;;5479980;26;20340;-64
2024/04/22 01:49:33;;;;;;;6.25;2.65;;;5.10;99.90;;;;;;5509555;25;19997;-64
2024/04/22 01:51:59;;;;;;;4.68;2.65;;;5.00;99.90;;;;;;5472106;26;20713;-63
2024/04/22 01:54:24;;;;;;;3.55;1.80;;;5.00;99.90;;;;;;5512238;25;20020;-64
2024/04/22 01:56:50;;;;;;;4.50;2.35;;;5.00;99.90;;;;;;5478678;26;20009;-64
2024/04/22 01:59:16;;;;;;;4.20;2.20;;;4.80;99.90;;;;;;5508752;25;19993;-64
2024/04/22 02:01:43;;;;;;;4.13;2.17;;;4.80;99.90;;;;;;5508643;25;19998;-63
2024/04/22 02:04:09;;;;;;;5.53;2.50;;;4.70;99.90;;;;;;5498570;25;20001;-65
2024/04/22 02:06:35;;;;;;;3.70;2.15;;;4.80;99.90;;;;;;5505259;25;20408;-64
2024/04/22 02:09:01;;;;;;;6.25;2.70;;;4.70;99.90;;;;;;5509831;25;20063;-64
2024/04/22 02:11:27;;;;;;;3.75;1.90;;;4.80;99.90;;;;;;5513036;25;20466;-63
2024/04/22 02:13:52;;;;;;;5.85;2.78;;;4.60;99.90;;;;;;5503951;25;19997;-64
2024/04/22 02:16:18;;;;;;;3.95;2.22;;;4.60;99.90;;;;;;5499434;25;20069;-63
2024/04/22 02:18:44;;;;;;;7.07;2.42;;;4.60;99.90;;;;;;5501383;25;20022;-64
2024/04/22 02:21:10;;;;;;;4.30;2.50;;;4.60;99.90;;;;;;5508781;25;19993;-63
2024/04/22 02:23:35;;;;;;;4.75;2.35;;;4.60;99.90;;;;;;5471062;26;20032;-64
2024/04/22 02:26:02;;;;;;;4.78;2.47;;;4.60;99.90;;;;;;5508880;25;19989;-64
2024/04/22 02:28:28;;;;;;;6.17;2.37;;;4.60;99.70;;;;;;5505707;25;20330;-63
2024/04/22 02:30:54;;;;;;;3.10;2.28;;;4.50;99.60;;;;;;5473917;26;19993;-63
2024/04/22 02:33:20;;;;;;;3.75;2.25;;;4.50;99.90;;;;;;5507950;25;20053;-63
2024/04/22 02:35:45;;;;;;;3.80;2.13;;;4.40;99.90;;;;;;5505726;25;20505;-63
2024/04/22 02:38:11;;;;;;;4.80;2.40;;;4.40;99.90;;;;;;5510823;25;20009;-63
2024/04/22 02:40:36;;;;;;;3.80;2.17;;;4.30;99.90;;;;;;5504152;25;20505;-64
2024/04/22 02:43:02;;;;;;;8.20;2.75;;;4.30;99.90;;;;;;5509588;25;20012;-63
2024/04/22 02:45:28;;;;;;;5.53;2.47;;;4.20;99.90;;;;;;5510776;26;20596;-64
2024/04/22 02:47:53;;;;;;;3.10;2.20;;;4.20;99.90;;;;;;5507277;25;20490;-64
2024/04/22 02:50:19;;;;;;;5.78;2.55;;;4.10;99.90;;;;;;5497438;25;20079;-64
2024/04/22 02:52:44;;;;;;;4.28;2.25;;;4.10;99.90;;;;;;5499422;25;19998;-63
2024/04/22 02:55:10;;;;;;;6.10;2.65;;;4.10;99.90;;;;;;5504710;25;20009;-64
2024/04/22 02:57:36;;;;;;;4.35;2.00;;;4.10;99.80;;;;;;5504782;25;20414;-63
2024/04/22 03:00:03;;;;;;;4.63;2.28;;;4.10;99.60;;;;;;5505781;26;20530;-63
2024/04/22 03:02:28;;;;;;;3.47;2.45;;;4.10;99.80;;;;;;5502770;26;20012;-63
2024/04/22 03:04:54;;;;;;;3.17;1.98;;;4.10;99.80;;;;;;5503165;25;19997;-63
2024/04/22 03:07:20;;;;;;;3.70;2.13;;;4.10;99.50;;;;;;5496314;25;20073;-64
2024/04/22 03:09:45;;;;;;;6.97;2.38;;;4.00;99.70;;;;;;5509390;25;20010;-65
2024/04/22 03:12:12;;;;;;;4.65;2.15;;;4.00;99.30;;;;;;5506556;25;19993;-64
2024/04/22 03:14:38;;;;;;;4.10;2.05;;;4.00;99.20;;;;;;5511911;25;20007;-63
2024/04/22 03:17:04;;;;;;;3.42;2.00;;;3.90;99.40;;;;;;5509023;25;20009;-63
2024/04/22 03:19:30;;;;;;;5.45;2.20;;;3.90;99.30;;;;;;5512783;25;20008;-63
2024/04/22 03:21:56;;;;;;;3.45;1.95;;;3.90;99.00;;;;;;5508592;25;20002;-64
2024/04/22 03:24:21;;;;;;;2.90;1.75;;;3.80;99.10;;;;;;5501774;25;20013;-64
2024/04/22 03:26:47;;;;;;;3.30;1.80;;;3.80;99.30;;;;;;5496766;25;20470;-64
2024/04/22 03:29:13;;;;;;;3.47;2.00;;;3.70;98.90;;;;;;5510991;26;20005;-63
2024/04/22 03:31:38;;;;;;;4.97;1.80;;;3.70;98.80;;;;;;5502507;25;20069;-64
2024/04/22 03:34:04;;;;;;;5.03;2.30;;;3.70;98.60;;;;;;5509321;26;20005;-63
2024/04/22 03:36:30;;;;;;;2.90;1.65;;;3.60;98.50;;;;;;5504621;25;19998;-63
2024/04/22 03:38:56;;;;;;;2.83;1.90;;;3.60;98.30;;;;;;5511319;25;19998;-64
2024/04/22 03:41:22;;;;;;;3.55;1.52;;;3.60;98.00;;;;;;5511836;25;20559;-63
2024/04/22 03:43:47;;;;;;;6.55;1.80;;;3.50;98.50;;;;;;5501726;25;20005;-64
2024/04/22 03:51:41;;;;;;;3.20;1.92;;;3.40;97.90;;;;;;5500922;25;20035;-64
2024/04/22 03:54:07;;;;;;;2.80;1.45;;;3.40;97.90;;;;;;5502948;25;19995;-64
2024/04/22 03:56:33;;;;;;;2.92;1.67;;;3.30;97.90;;;;;;5491911;25;19998;-64
2024/04/22 03:58:58;;;;;;;7.43;2.10;;;3.20;97.90;;;;;;5501870;26;20830;-63
2024/04/22 04:01:24;;;;;;;2.92;1.90;;;3.20;97.70;;;;;;5468344;26;20379;-63
2024/04/22 04:03:50;;;;;;;4.13;1.77;;;3.20;97.60;;;;;;5505838;25;20013;-63
2024/04/22 04:06:15;;;;;;;5.78;2.38;;;3.10;98.00;;;;;;5507532;25;20103;-64
2024/04/22 04:08:41;;;;;;;3.97;2.17;;;3.00;97.90;;;;;;5500630;25;20482;-67
2024/04/22 04:11:12;;;;;;;3.95;2.20;;;3.00;98.00;;;;;;5495042;26;20008;-66
2024/04/22 04:13:46;;;;;;;5.35;1.98;;;3.00;98.60;;;;;;5476883;26;20445;-66
2024/04/22 04:16:11;;;;;;;4.13;2.17;;;3.00;98.60;;;;;;5504756;25;19997;-67
2024/04/22 04:18:41;;;;;;;4.30;1.75;;;2.90;98.10;;;;;;5472015;25;20020;-67
2024/04/22 04:21:07;;;;;;;3.00;1.80;;;2.90;98.10;;;;;;5477275;26;20017;-67
2024/04/22 04:23:32;;;;;;;5.30;2.22;;;2.80;97.80;;;;;;5507960;25;20008;-66
2024/04/22 04:25:58;;;;;;;3.17;1.85;;;2.80;97.90;;;;;;5510397;25;20026;-66
2024/04/22 04:28:24;;;;;;;3.60;1.65;;;2.70;98.00;;;;;;5509249;25;20001;-66
2024/04/22 04:30:57;;;;;;;3.58;2.17;;;2.70;98.10;;;;;;5466844;26;20034;-66
2024/04/22 04:33:23;;;;;;;3.42;1.85;;;2.60;97.80;;;;;;5508553;25;20386;-68
2024/04/22 04:36:03;;;;;;;4.43;2.08;;;2.60;97.80;;;;;;5471627;26;21139;-66
2024/04/22 04:38:30;;;;;;;1.83;1.40;;;2.60;97.50;;;;;;5508799;25;19998;-66
2024/04/22 04:40:56;;;;;;;5.05;1.90;;;2.60;97.80;;;;;;5507320;25;20001;-68
2024/04/22 04:43:21;;;;;;;8.52;2.10;;;2.50;97.10;;;;;;5512311;25;20474;-68
2024/04/22 04:45:47;;;;;;;4.32;1.83;;;2.60;97.50;;;;;;5517213;26;20060;-66
2024/04/22 04:48:13;;;;;;;7.38;2.22;;;2.60;97.40;;;;;;5505731;26;20022;-66
2024/04/22 04:50:39;;;;;;;9.25;2.40;;;2.60;97.60;;;;;;5510667;25;19994;-66
2024/04/22 04:53:05;;;;;;;6.70;2.33;;;2.60;97.40;;;;;;5504594;25;19993;-67
2024/04/22 04:55:30;;;;;;;3.72;2.00;;;2.60;97.40;;;;;;5513715;26;20008;-66
2024/04/22 04:57:57;;;;;;;6.15;2.45;;;2.70;96.90;;;;;;5515118;26;20497;-66
2024/04/22 05:00:22;;;;;;;7.05;2.40;;;2.70;96.60;;;;;;5506356;26;20475;-68
2024/04/22 05:02:48;;;;;;;7.70;2.28;;;2.70;96.60;;;;;;5507232;26;20001;-66
2024/04/22 05:05:14;;;;;;;6.07;2.00;;;2.80;96.40;;;;;;5516812;25;20008;-66
2024/04/22 05:07:39;;;;;;;7.80;2.20;;;2.90;96.50;;;;;;5507278;25;19998;-66
2024/04/22 05:10:05;;;;;;;9.52;2.28;;;2.90;96.70;;;;;;5515216;26;20344;-67
2024/04/22 05:12:31;;;;;;;5.90;2.25;;;2.90;97.00;;;;;;5511377;25;20024;-67
2024/04/22 05:14:57;;;;;;;6.05;2.30;;;3.00;97.40;;;;;;5508059;25;20021;-69
2024/04/22 05:17:23;;;;;;;5.68;2.70;;;3.10;96.80;;;;;;5501718;26;20011;-66
2024/04/22 05:19:49;;;;;;;4.00;2.50;;;3.20;96.90;;;;;;5514571;25;20018;-66
2024/04/22 05:22:14;;;;;;;5.25;2.67;;;3.20;97.20;;;;;;5514694;25;19994;-66
2024/04/22 05:24:40;;;;;;;4.82;2.35;;;3.20;97.00;;;;;;5512222;25;20046;-66
2024/04/22 05:27:05;;;;;;;4.25;2.25;;;3.20;97.60;;;;;;5506152;25;19990;-66
2024/04/22 05:29:32;;;;;;;5.78;2.17;;;3.30;97.50;;;;;;5473355;25;20086;-65
2024/04/22 05:31:57;;;;;;;6.60;2.47;;;3.30;97.40;;;;;;5500287;25;19997;-66
2024/04/22 05:37:07;;;;;;;5.30;2.20;;;3.30;97.70;;;;;;5502911;25;20016;-66
2024/04/22 05:39:33;;;;;;;7.13;2.47;;;3.40;97.90;;;;;;5507253;25;20445;-66
2024/04/22 05:41:58;;;;;;;6.20;2.40;;;3.40;97.70;;;;;;5500462;25;20054;-67
2024/04/22 05:44:24;;;;;;;5.13;2.05;;;3.50;97.50;;;;;;5505702;25;20009;-66
2024/04/22 05:46:49;;;;;;;5.18;2.80;;;3.50;97.30;;;;;;5505028;25;19997;-67
2024/04/22 05:49:15;;;;;;;6.22;2.53;;;3.50;97.60;;;;;;5506300;25;20077;-66
2024/04/22 05:51:41;;;;;;;8.15;2.33;;;3.60;97.70;;;;;;5502040;25;20049;-67
2024/04/22 05:54:08;;;;;;;5.20;2.03;;;3.70;97.50;;;;;;5507167;25;19993;-66
2024/04/22 05:56:34;;;;;;;7.40;2.25;;;3.70;97.20;;;;;;5472954;26;20013;-66
2024/04/22 05:59:00;;;;;;;4.45;1.90;;;3.80;97.00;;;;;;5504166;25;20021;-68
2024/04/22 06:01:25;;;;;;;5.45;1.80;;;3.70;96.90;;;;;;5501020;25;19998;-67
2024/04/22 06:03:55;;;;;;;5.45;1.75;;;3.80;96.90;;;;;;5508157;25;20001;-68
2024/04/22 06:06:20;;;;;;;4.57;2.25;;;3.80;96.80;;;;;;5502892;25;19998;-68
2024/04/22 06:08:46;;;;;;;2.92;1.75;;;3.90;96.80;;;;;;5505778;25;20004;-67
2024/04/22 06:11:12;;;;;;;6.57;1.60;;;3.90;96.80;;;;;;5506606;26;19997;-68
2024/04/22 06:13:38;;;;;;;5.40;2.40;;;3.90;96.70;;;;;;5507350;26;20350;-66
2024/04/22 06:16:05;;;;;;;5.45;1.75;;;4.00;96.50;;;;;;5506180;26;19997;-66
2024/04/22 06:18:31;;;;;;;9.05;1.70;;;4.00;96.50;;;;;;5505905;26;20465;-66
2024/04/22 06:20:56;;;;;;;4.68;1.90;;;4.10;96.50;;;;;;5472362;26;20002;-66
2024/04/22 06:23:22;;;;;;;13.25;1.90;;;4.10;96.50;;;;;;5509177;26;23692;-66
2024/04/22 06:25:48;;;;;;;4.88;1.75;;;4.20;96.50;;;;;;5496992;26;20002;-66
2024/04/22 06:28:13;;;;;;;5.72;2.28;;;4.30;96.40;;;;;;5505602;25;20657;-67
2024/04/22 06:30:39;;;;;;;10.52;2.33;;;4.30;96.20;;;;;;5507055;25;20425;-67
2024/04/22 06:33:04;;;;;;;4.85;1.98;;;4.40;96.00;;;;;;5500096;25;20006;-66
2024/04/22 06:35:30;;;;;;;5.78;2.13;;;4.30;95.80;;;;;;5507731;25;20073;-65
2024/04/22 06:37:56;;;;;;;5.55;1.80;;;4.40;95.80;;;;;;5499699;25;22389;-67
2024/04/22 06:40:22;;;;;;;7.90;2.22;;;4.50;95.90;;;;;;5500417;25;20075;-67
2024/04/22 06:42:48;;;;;;;7.43;2.38;;;4.60;95.80;;;;;;5500178;25;20001;-68
2024/04/22 06:45:14;;;;;;;8.18;3.00;;;4.60;95.50;;;;;;5496146;25;20012;-67
2024/04/22 06:47:39;;;;;;;8.02;3.00;;;4.60;95.60;;;;;;5503941;25;20108;-67
2024/04/22 06:50:05;;;;;;;6.88;2.50;;;4.60;95.50;;;;;;5503978;25;20017;-67
2024/04/22 06:52:30;;;;;;;9.68;3.42;;;4.70;95.60;;;;;;5503241;25;20012;-67
2024/04/22 06:54:56;;;;;;;9.48;3.88;;;4.80;95.70;;;;;;5471907;26;20002;-66
2024/04/22 06:57:22;;;;;;;13.48;4.05;;;4.80;95.60;;;;;;5501030;25;20058;-67
2024/04/22 06:59:47;;;;;;;10.02;3.60;;;4.90;95.20;;;;;;5504841;25;20013;-69
2024/04/22 07:02:13;;;;;;;13.23;3.35;;;5.00;95.00;;;;;;5505050;25;20023;-67
2024/04/22 07:04:38;;;;;;;6.75;2.28;;;5.00;94.90;;;;;;5501042;25;20009;-67
2024/04/22 07:07:04;;;;;;;10.15;2.72;;;5.10;95.10;;;;;;5501977;25;20009;-67
2024/04/22 07:09:30;;;;;;;9.30;2.20;;;5.10;95.00;;;;;;5505116;26;20018;-67
2024/04/22 07:11:55;;;;;;;10.02;2.45;;;5.10;94.70;;;;;;5504246;25;20002;-68
2024/04/22 07:14:22;;;;;;;10.63;2.72;;;5.10;94.60;;;;;;5505839;25;20559;-66
2024/04/22 07:16:55;;;;;;;6.07;2.40;;;5.20;94.60;;;;;;5502693;25;19994;-68
2024/04/22 07:19:21;;;;;;;11.88;2.15;;;5.20;94.50;;;;;;5503843;25;19997;-66
2024/04/22 07:21:47;;;;;;;6.28;2.58;;;5.30;94.50;;;;;;5504252;26;19993;-68
2024/04/22 07:24:13;;;;;;;16.52;2.80;;;5.40;94.60;;;;;;5503817;25;20080;-68
2024/04/22 07:26:38;;;;;;;7.47;1.98;;;5.50;94.50;;;;;;5500280;25;19994;-67
2024/04/22 07:29:04;;;;;;;9.85;2.20;;;5.70;94.60;;;;;;5505807;25;20078;-66
2024/04/22 07:31:32;;;;;;;9.32;2.17;;;5.80;94.10;;;;;;5506676;26;19993;-67
2024/04/22 07:33:58;;;;;;;10.75;2.15;;;5.90;94.00;;;;;;5502618;25;20016;-66
2024/04/22 07:36:37;;;;;;;6.55;1.90;;;6.00;94.10;;;;;;5498921;25;20002;-67
2024/04/22 07:39:05;;;;;;;8.32;2.00;;;6.10;94.00;;;;;;5502795;25;20010;-66
2024/04/22 07:41:31;;;;;;;4.40;1.40;;;6.10;93.40;;;;;;5504565;26;19990;-67
2024/04/22 07:43:57;;;;;;;8.18;2.00;;;6.30;93.00;;;;;;5498906;26;20005;-66
2024/04/22 07:46:24;;;;;;;6.75;2.55;;;6.40;93.00;;;;;;5504223;25;20005;-67
2024/04/22 07:48:49;;;;;;;5.15;2.13;;;6.50;92.20;;;;;;5503750;25;20005;-67
2024/04/22 07:51:15;;;;;;;7.40;2.17;;;6.50;92.40;;;;;;5505891;25;21904;-67
2024/04/22 07:53:41;;;;;;;3.33;1.52;;;6.50;92.20;;;;;;5501296;25;20021;-66
2024/04/22 07:56:14;;;;;;;10.35;2.03;;;6.60;92.30;;;;;;5500473;25;19998;-68
2024/04/22 07:58:41;;;;;;;5.40;2.20;;;6.60;92.50;;;;;;5509561;25;20730;-66
2024/04/22 08:01:07;;;;;;;7.70;2.15;;;6.70;92.60;;;;;;5505140;26;19997;-67
2024/04/22 08:03:33;;;;;;;8.70;2.40;;;6.80;92.30;;;;;;5509006;25;19993;-68
2024/04/22 08:06:06;;;;;;;11.50;2.40;;;6.80;91.70;;;;;;5475294;25;20522;-66
2024/04/22 08:08:34;;;;;;;5.50;2.05;;;6.80;91.80;;;;;;5508026;25;19993;-68
2024/04/22 08:11:00;;;;;;;6.15;1.88;;;6.80;91.60;;;;;;5503930;25;19994;-67
2024/04/22 08:13:25;;;;;;;10.38;2.20;;;6.80;91.50;;;;;;5505140;25;20594;-67
2024/04/22 08:15:51;;;;;;;4.85;1.80;;;6.90;91.60;;;;;;5502317;25;20089;-67
2024/04/22 08:18:17;;;;;;;8.85;2.45;;;6.90;91.70;;;;;;5505514;25;19994;-67
2024/04/22 08:20:42;;;;;;;3.10;1.75;;;7.00;91.60;;;;;;5507544;25;20600;-67
2024/04/22 08:23:08;;;;;;;6.30;1.95;;;7.10;91.70;;;;;;5506539;25;20009;-67
2024/04/22 08:25:34;;;;;;;4.32;1.67;;;7.20;91.60;;;;;;5470263;26;20001;-63
2024/04/22 08:28:00;;;;;;;4.22;1.70;;;7.20;91.40;;;;;;5505347;25;20002;-66
2024/04/22 08:30:27;;;;;;;4.10;1.70;;;7.30;91.40;;;;;;5467933;26;20005;-65
2024/04/22 08:32:53;;;;;;;6.20;1.80;;;7.40;91.20;;;;;;5474173;26;20004;-67
2024/04/22 08:35:18;;;;;;;8.25;1.65;;;7.40;91.00;;;;;;5506925;25;20019;-66
2024/04/22 08:37:44;;;;;;;3.17;1.70;;;7.50;90.70;;;;;;5505282;25;20001;-66
2024/04/22 08:40:12;;;;;;;4.55;1.52;;;7.50;90.80;;;;;;5507730;25;19997;-68
2024/04/22 08:42:40;;;;;;;4.53;1.58;;;7.50;90.60;;;;;;5505450;25;20799;-66
2024/04/22 08:45:06;;;;;;;5.50;1.75;;;7.40;90.60;;;;;;5504168;25;20570;-66
2024/04/22 08:47:32;;;;;;;3.55;1.40;;;7.50;90.80;;;;;;5507827;25;20005;-66
2024/04/22 08:49:59;;;;;;;6.93;1.40;;;7.60;90.80;;;;;;5500397;25;20012;-66
2024/04/22 08:52:25;;;;;;;4.10;1.63;;;7.70;90.90;;;;;;5504473;25;20315;-66
2024/04/22 08:54:50;;;;;;;3.53;1.20;;;7.70;90.20;;;;;;5505009;25;19998;-67
2024/04/22 08:57:16;;;;;;;2.00;1.10;;;7.80;90.30;;;;;;5501999;25;20560;-66
2024/04/22 08:59:42;;;;;;;5.45;1.30;;;7.90;89.80;;;;;;5481389;25;20020;-66
2024/04/22 09:02:08;;;;;;;2.40;1.27;;;8.00;88.90;;;;;;5505503;25;20402;-66
2024/04/22 09:04:34;;;;;;;6.63;1.10;;;8.00;87.70;;;;;;5499984;25;19993;-65
2024/04/22 09:07:02;;;;;;;4.03;1.20;;;8.10;87.60;;;;;;5502470;25;20037;-66
2024/04/22 09:09:27;;;;;;;3.40;1.02;;;8.20;88.50;;;;;;5508274;25;19997;-66
2024/04/22 09:11:53;;;;;;;5.32;1.00;;;8.20;86.60;;;;;;5511533;25;20005;-67
2024/04/22 09:14:19;;;;;;;6.20;1.05;;;8.20;87.00;;;;;;5506162;25;20004;-66
2024/04/22 09:16:46;;;;;;;2.63;1.15;;;8.20;85.90;;;;;;5507566;25;20001;-66
2024/04/22 09:19:25;;;;;;;1.98;0.85;;;8.30;85.50;;;;;;5504063;25;20837;-65
2024/04/22 09:21:51;;;;;;;3.75;1.10;;;8.40;85.70;;;;;;5498036;25;19998;-66
2024/04/22 09:24:17;;;;;;;3.22;1.10;;;8.40;86.00;;;;;;5496567;25;20012;-66
2024/04/22 09:26:43;;;;;;;2.08;1.30;;;8.50;84.90;;;;;;5498394;25;19994;-66
2024/04/22 09:29:08;;;;;;;2.45;0.95;;;8.50;86.00;;;;;;5511402;25;20013;-66
2024/04/22 09:31:38;;;;;;;4.35;1.30;;;8.40;84.60;;;;;;5512006;25;20013;-66
2024/04/22 09:34:05;;;;;;;3.50;1.30;;;8.60;86.20;;;;;;5497231;25;20017;-66
2024/04/22 09:36:31;;;;;;;3.45;1.48;;;8.80;86.30;;;;;;5495897;25;20014;-66
2024/04/22 09:38:57;;;;;;;4.28;1.42;;;8.80;85.60;;;;;;5505449;25;20001;-67
2024/04/22 09:41:25;;;;;;;3.90;1.20;;;8.90;85.50;;;;;;5503821;25;20078;-65
2024/04/22 09:43:53;;;;;;;4.65;1.58;;;8.90;84.70;;;;;;5508354;25;20006;-67
2024/04/22 09:46:20;;;;;;;4.00;1.05;;;9.00;84.70;;;;;;5480250;25;20499;-66
2024/04/22 09:48:47;;;;;;;5.07;0.93;;;9.20;85.20;;;;;;5504277;25;20001;-67
2024/04/22 09:51:14;;;;;;;3.10;1.30;;;9.30;85.00;;;;;;5503851;25;20012;-68
2024/04/22 09:53:40;;;;;;;6.40;1.58;;;9.30;84.30;;;;;;5508156;25;20474;-66
2024/04/22 09:56:14;;;;;;;3.33;1.08;;;9.40;84.60;;;;;;5499326;25;19997;-66
2024/04/22 09:58:41;;;;;;;5.22;1.13;;;9.50;84.30;;;;;;5505455;26;20465;-66
2024/04/22 10:01:06;;;;;;;5.18;1.42;;;9.60;84.10;;;;;;5510685;25;20760;-66
2024/04/22 10:03:32;;;;;;;2.83;1.23;;;9.50;82.40;;;;;;5510679;25;20048;-66
2024/04/22 10:05:59;;;;;;;2.50;1.08;;;9.60;83.00;;;;;;5473490;26;20049;-65
2024/04/22 10:08:29;;;;;;;4.07;1.60;;;9.80;83.30;;;;;;5511326;25;20016;-67
2024/04/22 10:11:07;;;;;;;3.80;1.50;;;9.80;82.30;;;;;;5499180;25;19993;-66
2024/04/22 10:13:32;;;;;;;3.40;1.25;;;9.80;82.20;;;;;;5513269;25;20580;-66
2024/04/22 10:15:58;;;;;;;2.75;0.90;;;9.80;81.60;;;;;;5476667;26;20005;-67
2024/04/22 10:18:24;;;;;;;1.67;1.00;;;9.70;81.60;;;;;;5507239;25;20008;-66
2024/04/22 10:20:51;;;;;;;4.88;1.58;;;9.80;82.60;;;;;;5502443;26;20001;-67
2024/04/22 10:23:16;;;;;;;4.18;1.60;;;9.80;82.10;;;;;;5496653;25;19995;-67
2024/04/22 10:25:42;;;;;;;1.75;1.27;;;10.00;79.50;;;;;;5505586;25;19997;-65
2024/04/22 10:28:08;;;;;;;9.00;1.40;;;9.90;79.70;;;;;;5500336;25;19998;-65
2024/04/22 10:30:35;;;;;;;5.18;1.25;;;9.90;81.10;;;;;;5462058;25;20016;-66
2024/04/22 10:33:01;;;;;;;5.57;1.55;;;10.00;80.40;;;;;;5510167;25;20067;-66
2024/04/22 10:35:29;;;;;;;4.32;1.48;;;10.00;79.90;;;;;;5493179;25;20010;-66
2024/04/22 10:37:55;;;;;;;2.28;1.40;;;10.10;78.60;;;;;;5502233;25;19997;-66
2024/04/22 10:40:21;;;;;;;4.05;1.48;;;10.10;79.40;;;;;;5503567;25;20045;-66
2024/04/22 10:42:47;;;;;;;1.75;1.30;;;10.20;80.00;;;;;;5499407;25;20016;-66
2024/04/22 10:45:13;;;;;;;6.05;1.63;;;10.30;79.40;;;;;;5506867;25;19994;-66
2024/04/22 10:47:39;;;;;;;3.97;1.42;;;10.40;77.30;;;;;;5506708;26;20002;-66
2024/04/22 10:50:14;;;;;;;4.88;1.20;;;10.50;78.60;;;;;;5502932;25;20553;-65
2024/04/22 10:52:40;;;;;;;5.93;1.25;;;10.80;78.80;;;;;;5499980;25;19994;-65
2024/04/22 10:55:07;;;;;;;3.42;1.63;;;10.90;76.70;;;;;;5480979;26;20072;-66
2024/04/22 10:57:33;;;;;;;3.28;1.40;;;10.90;76.00;;;;;;5503458;26;20005;-66
2024/04/22 11:00:01;;;;;;;6.10;1.27;;;11.00;76.40;;;;;;5514932;26;20596;-66
2024/04/22 11:02:31;;;;;;;1.85;1.13;;;11.00;76.40;;;;;;5484130;25;20684;-68
2024/04/22 11:04:56;;;;;;;5.50;1.80;;;10.90;74.60;;;;;;5507197;26;19999;-66
2024/04/22 11:07:23;;;;;;;2.35;1.50;;;10.90;75.10;;;;;;5516380;26;20042;-66
2024/04/22 11:09:50;;;;;;;4.35;1.35;;;10.90;75.40;;;;;;5502492;26;20001;-67
2024/04/22 11:12:17;;;;;;;4.78;1.70;;;10.90;76.70;;;;;;5502578;25;20005;-66
2024/04/22 11:14:43;;;;;;;3.35;1.70;;;11.00;75.90;;;;;;5506963;25;19998;-68
2024/04/22 11:17:10;;;;;;;3.05;1.70;;;11.10;78.40;;;;;;5509871;25;20013;-66
2024/04/22 11:19:35;;;;;;;4.00;1.60;;;11.20;77.00;;;;;;5471605;25;20035;-66
2024/04/22 11:22:01;;;;;;;2.13;1.50;;;11.10;76.00;;;;;;5493948;25;20009;-66
2024/04/22 11:24:27;;;;;;;2.72;1.13;;;11.10;75.30;;;;;;5505757;25;20076;-67
2024/04/22 11:26:52;;;;;;;5.00;1.45;;;11.10;76.80;;;;;;5506534;25;20050;-65
2024/04/22 11:29:18;;;;;;;2.92;1.30;;;11.10;75.30;;;;;;5505253;25;20017;-67
2024/04/22 11:31:44;;;;;;;3.63;1.40;;;11.10;75.90;;;;;;5499442;25;20093;-67
2024/04/22 11:34:10;;;;;;;2.95;1.45;;;11.10;75.20;;;;;;5506248;25;20012;-67
2024/04/22 11:36:36;;;;;;;2.13;1.35;;;11.00;75.10;;;;;;5516503;26;20005;-66
2024/04/22 11:39:12;;;;;;;4.07;1.50;;;10.90;74.70;;;;;;5487415;26;20326;-65
2024/04/22 11:41:37;;;;;;;5.40;1.92;;;10.80;74.10;;;;;;5502304;25;20008;-66
2024/04/22 11:44:04;;;;;;;3.80;2.30;;;10.80;75.40;;;;;;5512536;25;19998;-66
2024/04/22 11:46:29;;;;;;;8.85;1.83;;;10.90;76.10;;;;;;5508968;25;20005;-68
2024/04/22 11:48:55;;;;;;;2.45;1.50;;;10.90;75.80;;;;;;5516065;25;19993;-66
2024/04/22 11:51:20;;;;;;;2.67;1.63;;;11.10;76.20;;;;;;5479187;26;20041;-66
2024/04/22 11:53:46;;;;;;;4.32;1.70;;;11.40;75.30;;;;;;5509114;25;20242;-66
2024/04/22 11:56:12;;;;;;;1.90;1.17;;;11.60;74.10;;;;;;5476914;25;20002;-66
2024/04/22 11:58:37;;;;;;;2.53;1.33;;;11.80;74.40;;;;;;5500501;25;22834;-67
2024/04/22 12:01:03;;;;;;;3.50;1.55;;;12.10;74.00;;;;;;5502054;25;19994;-66
2024/04/22 12:03:29;;;;;;;2.45;1.67;;;12.50;74.00;;;;;;5503699;25;20002;-66
2024/04/22 12:05:54;;;;;;;2.88;1.85;;;12.70;73.10;;;;;;5506684;25;20450;-68
2024/04/22 12:08:20;;;;;;;4.82;1.60;;;12.80;73.00;;;;;;5504125;25;20001;-66
2024/04/22 12:10:46;;;;;;;4.40;1.70;;;12.80;72.80;;;;;;5501149;25;20650;-67
2024/04/22 12:13:11;;;;;;;2.58;1.50;;;12.80;71.40;;;;;;5508729;25;20009;-68
2024/04/22 12:15:37;;;;;;;3.53;1.50;;;12.80;72.80;;;;;;5509698;25;20006;-66
2024/04/22 12:18:03;;;;;;;3.15;1.45;;;12.80;73.80;;;;;;5512619;25;20359;-66
2024/04/22 12:20:29;;;;;;;1.92;1.33;;;12.80;73.70;;;;;;5501978;25;19998;-66
2024/04/22 12:22:55;;;;;;;3.90;1.30;;;12.60;72.90;;;;;;5502538;25;20005;-67
2024/04/22 12:25:21;;;;;;;3.08;1.65;;;12.40;73.20;;;;;;5508100;25;20012;-68
2024/04/22 12:27:47;;;;;;;4.88;1.70;;;12.30;72.10;;;;;;5488320;25;19998;-69
2024/04/22 12:30:12;;;;;;;2.45;1.80;;;12.30;72.20;;;;;;5472757;26;19995;-67
2024/04/22 12:32:40;;;;;;;2.20;1.40;;;12.40;72.50;;;;;;5474855;26;20002;-67
2024/04/22 12:35:05;;;;;;;3.50;1.77;;;12.50;72.00;;;;;;5509958;25;20042;-67
2024/04/22 12:37:31;;;;;;;2.53;1.50;;;12.60;71.20;;;;;;5474267;26;20002;-67
2024/04/22 12:39:57;;;;;;;2.63;1.40;;;12.60;70.80;;;;;;5510741;25;20397;-67
2024/04/22 12:42:22;;;;;;;1.75;1.23;;;12.70;71.10;;;;;;5500367;25;20006;-68
2024/04/22 12:44:48;;;;;;;3.05;1.73;;;12.90;70.40;;;;;;5494530;25;20648;-67
2024/04/22 12:52:42;;;;;;;6.95;1.90;;;13.00;69.40;;;;;;5507749;25;20103;-67
2024/04/22 12:55:07;;;;;;;2.58;1.50;;;13.10;69.90;;;;;;5506952;25;20467;-67
2024/04/22 12:57:33;;;;;;;3.10;1.60;;;13.50;68.00;;;;;;5506249;25;20013;-68
2024/04/22 13:00:06;;;;;;;3.05;1.40;;;13.90;70.40;;;;;;5511371;25;20015;-67
2024/04/22 13:02:35;;;;;;;3.20;1.75;;;14.40;69.60;;;;;;5512996;25;20031;-67
2024/04/22 13:05:01;;;;;;;3.00;1.75;;;14.80;68.00;;;;;;5506474;25;20145;-68